sensor_id;sensor_type;location;lat;lon;timestamp;temperature;humidity
12720;DHT22;6424;48.520;11.228;2022-08-03T00:00:52;17.80;99.90
12720;DHT22;6424;48.520;11.228;2022-08-03T00:03:33;17.70;99.90
12720;DHT22;6424;48.520;11.228;2022-08-03T00:06:14;17.70;99.90
12720;DHT22;6424;48.520;11.228;2022-08-03T00:08:54;17.60;99.90
12720;DHT22;6424;48.520;11.228;2022-08-03T00:11:35;17.60;99.90
12720;DHT22;6424;48.520;11.228;2022-08-03T00:14:16;17.60;99.90
12720;DHT22;6424;48.520;11.228;2022-08-03T00:16:57;17.50;99.90
12720;DHT22;6424;48.520;11.228;2022-08-03T00:19:38;17.50;99.90
12720;DHT22;6424;48.520;11.228;2022-08-03T00:22:22;17.50;99.90
12720;DHT22;6424;48.520;11.228;2022-08-03T00:25:08;17.40;99.90
12720;DHT22;6424;48.520;11.228;2022-08-03T00:27:49;17.40;99.90
12720;DHT22;6424;48.520;11.228;2022-08-03T00:30:15;17.30;99.90
12720;DHT22;6424;48.520;11.228;2022-08-03T00:32:56;17.30;99.90
12720;DHT22;6424;48.520;11.228;2022-08-03T00:35:37;17.30;99.90
12720;DHT22;6424;48.520;11.228;2022-08-03T00:38:19;17.30;99.90
12720;DHT22;6424;48.520;11.228;2022-08-03T00:41:00;17.20;99.90
12720;DHT22;6424;48.520;11.228;2022-08-03T00:43:41;17.20;99.90
12720;DHT22;6424;48.520;11.228;2022-08-03T00:46:22;17.20;99.90
12720;DHT22;6424;48.520;11.228;2022-08-03T00:49:02;17.20;99.90
12720;DHT22;6424;48.520;11.228;2022-08-03T00:51:43;17.10;99.90
12720;DHT22;6424;48.520;11.228;2022-08-03T00:54:24;17.10;99.90
12720;DHT22;6424;48.520;11.228;2022-08-03T00:57:06;17.00;99.90
12720;DHT22;6424;48.520;11.228;2022-08-03T00:59:47;17.00;99.90
12720;DHT22;6424;48.520;11.228;2022-08-03T01:02:28;17.00;99.90
12720;DHT22;6424;48.520;11.228;2022-08-03T01:05:09;16.90;99.90
12720;DHT22;6424;48.520;11.228;2022-08-03T01:08:38;16.90;99.90
12720;DHT22;6424;48.520;11.228;2022-08-03T01:14:08;16.80;99.90
12720;DHT22;6424;48.520;11.228;2022-08-03T01:23:00;16.70;99.90
12720;DHT22;6424;48.520;11.228;2022-08-03T01:29:09;16.60;99.90
12720;DHT22;6424;48.520;11.228;2022-08-03T01:32:11;16.60;99.90
12720;DHT22;6424;48.520;11.228;2022-08-03T01:35:01;16.60;99.90
12720;DHT22;6424;48.520;11.228;2022-08-03T01:37:49;16.60;99.90
12720;DHT22;6424;48.520;11.228;2022-08-03T01:40:33;16.50;99.90
12720;DHT22;6424;48.520;11.228;2022-08-03T01:43:18;16.50;99.90
12720;DHT22;6424;48.520;11.228;2022-08-03T01:46:02;16.50;99.90
12720;DHT22;6424;48.520;11.228;2022-08-03T01:48:44;16.50;99.90
12720;DHT22;6424;48.520;11.228;2022-08-03T01:51:26;16.40;99.90
12720;DHT22;6424;48.520;11.228;2022-08-03T01:54:09;16.40;99.90
12720;DHT22;6424;48.520;11.228;2022-08-03T01:56:52;16.40;99.90
12720;DHT22;6424;48.520;11.228;2022-08-03T01:59:36;16.30;99.90
12720;DHT22;6424;48.520;11.228;2022-08-03T02:02:07;16.30;99.90
12720;DHT22;6424;48.520;11.228;2022-08-03T02:04:49;16.30;99.90
12720;DHT22;6424;48.520;11.228;2022-08-03T02:07:17;16.30;99.90
12720;DHT22;6424;48.520;11.228;2022-08-03T02:10:00;16.20;99.90
12720;DHT22;6424;48.520;11.228;2022-08-03T02:12:44;16.30;99.90
12720;DHT22;6424;48.520;11.228;2022-08-03T02:15:26;16.20;99.90
12720;DHT22;6424;48.520;11.228;2022-08-03T02:18:09;16.20;99.90
12720;DHT22;6424;48.520;11.228;2022-08-03T02:20:51;16.20;99.90
12720;DHT22;6424;48.520;11.228;2022-08-03T02:23:32;16.20;99.90
12720;DHT22;6424;48.520;11.228;2022-08-03T02:26:15;16.20;99.90
12720;DHT22;6424;48.520;11.228;2022-08-03T02:29:02;16.10;99.90
12720;DHT22;6424;48.520;11.228;2022-08-03T02:31:45;16.10;99.90
12720;DHT22;6424;48.520;11.228;2022-08-03T02:34:28;16.00;99.90
12720;DHT22;6424;48.520;11.228;2022-08-03T02:37:12;16.00;99.90
12720;DHT22;6424;48.520;11.228;2022-08-03T02:39:57;16.00;99.90
12720;DHT22;6424;48.520;11.228;2022-08-03T02:42:39;16.00;99.90
12720;DHT22;6424;48.520;11.228;2022-08-03T02:45:09;15.90;99.90
12720;DHT22;6424;48.520;11.228;2022-08-03T02:47:56;15.90;99.90
12720;DHT22;6424;48.520;11.228;2022-08-03T02:50:38;15.80;99.90
12720;DHT22;6424;48.520;11.228;2022-08-03T02:53:20;15.80;99.90
12720;DHT22;6424;48.520;11.228;2022-08-03T02:56:03;15.80;99.90
12720;DHT22;6424;48.520;11.228;2022-08-03T02:58:46;15.70;99.90
12720;DHT22;6424;48.520;11.228;2022-08-03T03:01:29;15.70;99.90
12720;DHT22;6424;48.520;11.228;2022-08-03T03:04:11;15.70;99.90
12720;DHT22;6424;48.520;11.228;2022-08-03T03:06:52;15.60;99.90
12720;DHT22;6424;48.520;11.228;2022-08-03T03:09:34;15.60;99.90
12720;DHT22;6424;48.520;11.228;2022-08-03T03:12:16;15.60;99.90
12720;DHT22;6424;48.520;11.228;2022-08-03T03:14:43;15.60;99.90
12720;DHT22;6424;48.520;11.228;2022-08-03T03:17:10;15.50;99.90
12720;DHT22;6424;48.520;11.228;2022-08-03T03:19:52;15.50;99.90
12720;DHT22;6424;48.520;11.228;2022-08-03T03:22:34;15.50;99.90
12720;DHT22;6424;48.520;11.228;2022-08-03T03:25:19;15.50;99.90
12720;DHT22;6424;48.520;11.228;2022-08-03T03:27:46;15.50;99.90
12720;DHT22;6424;48.520;11.228;2022-08-03T03:30:28;15.50;99.90
12720;DHT22;6424;48.520;11.228;2022-08-03T03:33:09;15.50;99.90
12720;DHT22;6424;48.520;11.228;2022-08-03T03:35:53;15.50;99.90
12720;DHT22;6424;48.520;11.228;2022-08-03T03:38:34;15.50;99.90
12720;DHT22;6424;48.520;11.228;2022-08-03T03:41:15;15.50;99.90
12720;DHT22;6424;48.520;11.228;2022-08-03T03:43:42;15.50;99.90
12720;DHT22;6424;48.520;11.228;2022-08-03T03:46:23;15.50;99.90
12720;DHT22;6424;48.520;11.228;2022-08-03T03:49:05;15.40;99.90
12720;DHT22;6424;48.520;11.228;2022-08-03T03:51:52;15.50;99.90
12720;DHT22;6424;48.520;11.228;2022-08-03T03:54:41;15.50;99.90
12720;DHT22;6424;48.520;11.228;2022-08-03T03:57:22;15.50;99.90
12720;DHT22;6424;48.520;11.228;2022-08-03T04:00:03;15.50;99.90
12720;DHT22;6424;48.520;11.228;2022-08-03T04:02:45;15.50;99.90
12720;DHT22;6424;48.520;11.228;2022-08-03T04:05:13;15.50;99.90
12720;DHT22;6424;48.520;11.228;2022-08-03T04:08:16;15.50;99.90
12720;DHT22;6424;48.520;11.228;2022-08-03T04:14:11;15.50;99.90
12720;DHT22;6424;48.520;11.228;2022-08-03T04:16:56;15.50;99.90
12720;DHT22;6424;48.520;11.228;2022-08-03T04:19:46;15.50;99.90
12720;DHT22;6424;48.520;11.228;2022-08-03T04:22:30;15.60;99.90
12720;DHT22;6424;48.520;11.228;2022-08-03T04:25:14;15.70;99.90
12720;DHT22;6424;48.520;11.228;2022-08-03T04:27:59;16.40;99.90
12720;DHT22;6424;48.520;11.228;2022-08-03T04:30:44;17.50;99.90
12720;DHT22;6424;48.520;11.228;2022-08-03T04:33:29;18.80;99.90
12720;DHT22;6424;48.520;11.228;2022-08-03T04:35:57;20.10;99.90
12720;DHT22;6424;48.520;11.228;2022-08-03T04:38:55;21.20;99.90
12720;DHT22;6424;48.520;11.228;2022-08-03T04:41:38;22.40;99.90
12720;DHT22;6424;48.520;11.228;2022-08-03T04:44:20;23.50;99.90
12720;DHT22;6424;48.520;11.228;2022-08-03T04:47:03;24.30;99.90
12720;DHT22;6424;48.520;11.228;2022-08-03T04:49:44;25.30;99.90
12720;DHT22;6424;48.520;11.228;2022-08-03T04:52:25;26.20;99.90
12720;DHT22;6424;48.520;11.228;2022-08-03T04:55:06;26.90;99.90
12720;DHT22;6424;48.520;11.228;2022-08-03T04:57:32;27.60;99.80
12720;DHT22;6424;48.520;11.228;2022-08-03T05:00:13;27.90;97.20
12720;DHT22;6424;48.520;11.228;2022-08-03T05:02:54;28.30;96.50
12720;DHT22;6424;48.520;11.228;2022-08-03T05:05:35;28.80;94.50
12720;DHT22;6424;48.520;11.228;2022-08-03T05:08:16;29.00;92.20
12720;DHT22;6424;48.520;11.228;2022-08-03T05:10:57;29.30;90.20
12720;DHT22;6424;48.520;11.228;2022-08-03T05:13:37;29.40;87.00
12720;DHT22;6424;48.520;11.228;2022-08-03T05:16:18;29.60;83.20
12720;DHT22;6424;48.520;11.228;2022-08-03T05:18:59;29.60;81.10
12720;DHT22;6424;48.520;11.228;2022-08-03T05:21:40;29.70;81.00
12720;DHT22;6424;48.520;11.228;2022-08-03T05:24:21;29.90;79.10
12720;DHT22;6424;48.520;11.228;2022-08-03T05:27:01;30.10;77.30
12720;DHT22;6424;48.520;11.228;2022-08-03T05:29:42;30.20;76.20
12720;DHT22;6424;48.520;11.228;2022-08-03T05:32:23;30.30;74.80
12720;DHT22;6424;48.520;11.228;2022-08-03T05:35:04;30.30;74.20
12720;DHT22;6424;48.520;11.228;2022-08-03T05:37:45;30.40;73.30
12720;DHT22;6424;48.520;11.228;2022-08-03T05:40:26;30.40;73.00
12720;DHT22;6424;48.520;11.228;2022-08-03T05:43:07;30.30;72.40
12720;DHT22;6424;48.520;11.228;2022-08-03T05:45:32;30.40;72.00
12720;DHT22;6424;48.520;11.228;2022-08-03T05:47:58;30.20;71.70
12720;DHT22;6424;48.520;11.228;2022-08-03T05:50:39;30.10;72.20
12720;DHT22;6424;48.520;11.228;2022-08-03T05:53:20;30.20;73.60
12720;DHT22;6424;48.520;11.228;2022-08-03T05:56:01;30.20;70.90
12720;DHT22;6424;48.520;11.228;2022-08-03T05:58:26;29.90;70.30
12720;DHT22;6424;48.520;11.228;2022-08-03T06:01:07;29.70;70.50
12720;DHT22;6424;48.520;11.228;2022-08-03T06:03:49;29.40;72.40
12720;DHT22;6424;48.520;11.228;2022-08-03T06:06:30;29.20;72.20
12720;DHT22;6424;48.520;11.228;2022-08-03T06:09:10;28.90;73.30
12720;DHT22;6424;48.520;11.228;2022-08-03T06:11:51;28.70;74.10
12720;DHT22;6424;48.520;11.228;2022-08-03T06:14:32;28.30;75.20
12720;DHT22;6424;48.520;11.228;2022-08-03T06:17:13;28.00;79.20
12720;DHT22;6424;48.520;11.228;2022-08-03T06:19:53;27.80;79.40
12720;DHT22;6424;48.520;11.228;2022-08-03T06:22:34;27.40;80.30
12720;DHT22;6424;48.520;11.228;2022-08-03T06:25:15;27.10;81.90
12720;DHT22;6424;48.520;11.228;2022-08-03T06:27:56;26.90;86.70
12720;DHT22;6424;48.520;11.228;2022-08-03T06:30:37;26.80;83.60
12720;DHT22;6424;48.520;11.228;2022-08-03T06:33:18;26.60;83.00
12720;DHT22;6424;48.520;11.228;2022-08-03T06:35:59;26.50;84.30
12720;DHT22;6424;48.520;11.228;2022-08-03T06:38:39;26.50;84.00
12720;DHT22;6424;48.520;11.228;2022-08-03T06:41:05;26.40;83.90
12720;DHT22;6424;48.520;11.228;2022-08-03T06:43:46;26.20;86.30
12720;DHT22;6424;48.520;11.228;2022-08-03T06:46:27;26.00;87.20
12720;DHT22;6424;48.520;11.228;2022-08-03T06:49:07;26.00;88.80
12720;DHT22;6424;48.520;11.228;2022-08-03T06:51:48;26.10;88.00
12720;DHT22;6424;48.520;11.228;2022-08-03T06:54:31;26.00;87.10
12720;DHT22;6424;48.520;11.228;2022-08-03T06:57:12;25.80;88.00
12720;DHT22;6424;48.520;11.228;2022-08-03T06:59:53;25.70;90.10
12720;DHT22;6424;48.520;11.228;2022-08-03T07:02:35;25.70;90.90
12720;DHT22;6424;48.520;11.228;2022-08-03T07:05:16;25.60;92.00
12720;DHT22;6424;48.520;11.228;2022-08-03T07:07:57;25.70;92.20
12720;DHT22;6424;48.520;11.228;2022-08-03T07:10:38;25.80;91.30
12720;DHT22;6424;48.520;11.228;2022-08-03T07:13:19;26.10;92.40
12720;DHT22;6424;48.520;11.228;2022-08-03T07:16:00;26.20;90.90
12720;DHT22;6424;48.520;11.228;2022-08-03T07:18:40;26.10;90.90
12720;DHT22;6424;48.520;11.228;2022-08-03T07:21:21;26.10;91.50
12720;DHT22;6424;48.520;11.228;2022-08-03T07:24:02;26.10;91.50
12720;DHT22;6424;48.520;11.228;2022-08-03T07:26:43;26.40;90.10
12720;DHT22;6424;48.520;11.228;2022-08-03T07:29:24;26.50;88.20
12720;DHT22;6424;48.520;11.228;2022-08-03T07:32:05;26.50;89.60
12720;DHT22;6424;48.520;11.228;2022-08-03T07:34:46;26.50;90.80
12720;DHT22;6424;48.520;11.228;2022-08-03T07:37:27;26.60;90.30
12720;DHT22;6424;48.520;11.228;2022-08-03T07:40:08;26.60;89.40
12720;DHT22;6424;48.520;11.228;2022-08-03T07:42:49;26.60;89.40
12720;DHT22;6424;48.520;11.228;2022-08-03T07:45:30;26.70;90.90
12720;DHT22;6424;48.520;11.228;2022-08-03T07:47:56;26.90;89.70
12720;DHT22;6424;48.520;11.228;2022-08-03T07:50:22;27.10;90.80
12720;DHT22;6424;48.520;11.228;2022-08-03T07:53:02;27.20;85.30
12720;DHT22;6424;48.520;11.228;2022-08-03T07:55:43;27.30;84.40
12720;DHT22;6424;48.520;11.228;2022-08-03T07:58:24;27.30;83.00
12720;DHT22;6424;48.520;11.228;2022-08-03T08:01:05;27.40;82.90
12720;DHT22;6424;48.520;11.228;2022-08-03T08:03:47;27.50;83.30
12720;DHT22;6424;48.520;11.228;2022-08-03T08:06:28;27.60;82.50
12720;DHT22;6424;48.520;11.228;2022-08-03T08:09:09;27.60;84.80
12720;DHT22;6424;48.520;11.228;2022-08-03T08:11:51;27.60;80.80
12720;DHT22;6424;48.520;11.228;2022-08-03T08:14:16;27.50;82.00
12720;DHT22;6424;48.520;11.228;2022-08-03T08:16:57;27.60;82.60
12720;DHT22;6424;48.520;11.228;2022-08-03T08:19:38;27.90;81.50
12720;DHT22;6424;48.520;11.228;2022-08-03T08:22:19;28.00;80.40
12720;DHT22;6424;48.520;11.228;2022-08-03T08:24:59;28.20;78.70
12720;DHT22;6424;48.520;11.228;2022-08-03T08:27:42;28.40;75.80
12720;DHT22;6424;48.520;11.228;2022-08-03T08:30:09;28.30;76.00
12720;DHT22;6424;48.520;11.228;2022-08-03T08:32:50;28.40;74.20
12720;DHT22;6424;48.520;11.228;2022-08-03T08:35:31;28.40;74.10
12720;DHT22;6424;48.520;11.228;2022-08-03T08:38:12;28.60;74.60
12720;DHT22;6424;48.520;11.228;2022-08-03T08:40:55;28.80;76.00
12720;DHT22;6424;48.520;11.228;2022-08-03T08:43:36;29.10;75.70
12720;DHT22;6424;48.520;11.228;2022-08-03T08:46:17;29.30;70.10
12720;DHT22;6424;48.520;11.228;2022-08-03T08:48:59;29.20;70.30
12720;DHT22;6424;48.520;11.228;2022-08-03T08:51:42;29.20;72.50
12720;DHT22;6424;48.520;11.228;2022-08-03T08:54:26;29.30;70.50
12720;DHT22;6424;48.520;11.228;2022-08-03T08:57:09;29.30;66.70
12720;DHT22;6424;48.520;11.228;2022-08-03T08:59:51;29.50;66.00
12720;DHT22;6424;48.520;11.228;2022-08-03T09:02:35;29.60;64.20
12720;DHT22;6424;48.520;11.228;2022-08-03T09:05:17;29.70;65.50
12720;DHT22;6424;48.520;11.228;2022-08-03T09:07:59;29.80;63.20
12720;DHT22;6424;48.520;11.228;2022-08-03T09:10:40;29.90;63.60
12720;DHT22;6424;48.520;11.228;2022-08-03T09:13:21;29.90;62.20
12720;DHT22;6424;48.520;11.228;2022-08-03T09:16:15;29.80;61.60
12720;DHT22;6424;48.520;11.228;2022-08-03T09:19:12;29.80;60.00
12720;DHT22;6424;48.520;11.228;2022-08-03T09:22:11;29.80;62.00
12720;DHT22;6424;48.520;11.228;2022-08-03T09:25:04;29.90;60.30
12720;DHT22;6424;48.520;11.228;2022-08-03T09:27:47;30.10;60.30
12720;DHT22;6424;48.520;11.228;2022-08-03T09:30:27;30.20;59.00
12720;DHT22;6424;48.520;11.228;2022-08-03T09:33:10;30.20;59.40
12720;DHT22;6424;48.520;11.228;2022-08-03T09:35:47;30.30;60.40
12720;DHT22;6424;48.520;11.228;2022-08-03T09:38:31;30.40;61.30
12720;DHT22;6424;48.520;11.228;2022-08-03T09:40:57;30.60;58.10
12720;DHT22;6424;48.520;11.228;2022-08-03T09:43:47;30.60;57.30
12720;DHT22;6424;48.520;11.228;2022-08-03T09:46:28;30.60;58.10
12720;DHT22;6424;48.520;11.228;2022-08-03T09:49:12;30.70;58.10
12720;DHT22;6424;48.520;11.228;2022-08-03T09:51:53;30.80;58.30
12720;DHT22;6424;48.520;11.228;2022-08-03T09:54:34;30.90;56.50
12720;DHT22;6424;48.520;11.228;2022-08-03T09:57:01;30.70;56.30
12720;DHT22;6424;48.520;11.228;2022-08-03T09:59:28;30.80;56.30
12720;DHT22;6424;48.520;11.228;2022-08-03T10:02:23;30.90;56.10
12720;DHT22;6424;48.520;11.228;2022-08-03T10:05:05;31.00;55.30
12720;DHT22;6424;48.520;11.228;2022-08-03T10:07:49;30.90;54.20
12720;DHT22;6424;48.520;11.228;2022-08-03T10:10:44;30.80;55.40
12720;DHT22;6424;48.520;11.228;2022-08-03T10:13:25;30.80;55.50
12720;DHT22;6424;48.520;11.228;2022-08-03T10:16:06;31.00;54.70
12720;DHT22;6424;48.520;11.228;2022-08-03T10:18:47;31.00;54.40
12720;DHT22;6424;48.520;11.228;2022-08-03T10:21:15;31.00;52.90
12720;DHT22;6424;48.520;11.228;2022-08-03T10:23:56;30.90;53.00
12720;DHT22;6424;48.520;11.228;2022-08-03T10:26:38;30.90;51.50
12720;DHT22;6424;48.520;11.228;2022-08-03T10:29:09;31.00;53.10
12720;DHT22;6424;48.520;11.228;2022-08-03T10:31:53;31.10;52.20
12720;DHT22;6424;48.520;11.228;2022-08-03T10:34:39;31.20;52.90
12720;DHT22;6424;48.520;11.228;2022-08-03T10:37:21;31.10;52.30
12720;DHT22;6424;48.520;11.228;2022-08-03T10:40:03;31.20;53.90
12720;DHT22;6424;48.520;11.228;2022-08-03T10:42:31;31.40;53.80
12720;DHT22;6424;48.520;11.228;2022-08-03T10:45:18;31.50;51.70
12720;DHT22;6424;48.520;11.228;2022-08-03T10:47:59;31.50;51.10
12720;DHT22;6424;48.520;11.228;2022-08-03T10:50:41;31.50;50.30
12720;DHT22;6424;48.520;11.228;2022-08-03T10:53:39;31.50;48.80
12720;DHT22;6424;48.520;11.228;2022-08-03T10:59:59;31.50;48.90
12720;DHT22;6424;48.520;11.228;2022-08-03T11:05:47;31.30;48.90
12720;DHT22;6424;48.520;11.228;2022-08-03T11:08:33;31.30;50.40
12720;DHT22;6424;48.520;11.228;2022-08-03T11:14:04;31.50;49.70
12720;DHT22;6424;48.520;11.228;2022-08-03T11:16:50;31.60;48.80
12720;DHT22;6424;48.520;11.228;2022-08-03T11:19:50;31.60;49.30
12720;DHT22;6424;48.520;11.228;2022-08-03T11:22:50;31.70;49.30
12720;DHT22;6424;48.520;11.228;2022-08-03T11:26:09;31.80;47.60
12720;DHT22;6424;48.520;11.228;2022-08-03T11:28:35;31.60;46.00
12720;DHT22;6424;48.520;11.228;2022-08-03T11:34:06;31.40;49.30
12720;DHT22;6424;48.520;11.228;2022-08-03T11:37:18;31.40;48.60
12720;DHT22;6424;48.520;11.228;2022-08-03T11:40:00;31.70;48.50
12720;DHT22;6424;48.520;11.228;2022-08-03T11:42:43;31.90;47.40
12720;DHT22;6424;48.520;11.228;2022-08-03T11:45:24;32.00;45.40
12720;DHT22;6424;48.520;11.228;2022-08-03T11:48:15;32.00;46.50
12720;DHT22;6424;48.520;11.228;2022-08-03T11:50:56;32.10;48.20
12720;DHT22;6424;48.520;11.228;2022-08-03T11:53:37;32.10;47.90
12720;DHT22;6424;48.520;11.228;2022-08-03T11:56:18;32.10;47.10
12720;DHT22;6424;48.520;11.228;2022-08-03T11:58:59;32.10;47.50
12720;DHT22;6424;48.520;11.228;2022-08-03T12:01:40;32.00;46.50
12720;DHT22;6424;48.520;11.228;2022-08-03T12:04:21;31.80;46.50
12720;DHT22;6424;48.520;11.228;2022-08-03T12:07:02;31.80;46.80
12720;DHT22;6424;48.520;11.228;2022-08-03T12:10:10;31.90;46.60
12720;DHT22;6424;48.520;11.228;2022-08-03T12:12:36;32.10;46.40
12720;DHT22;6424;48.520;11.228;2022-08-03T12:15:27;32.10;45.40
12720;DHT22;6424;48.520;11.228;2022-08-03T12:18:13;31.90;45.90
12720;DHT22;6424;48.520;11.228;2022-08-03T12:21:09;31.80;46.00
12720;DHT22;6424;48.520;11.228;2022-08-03T12:23:56;31.60;46.30
12720;DHT22;6424;48.520;11.228;2022-08-03T12:26:43;31.40;45.50
12720;DHT22;6424;48.520;11.228;2022-08-03T12:29:25;31.50;47.10
12720;DHT22;6424;48.520;11.228;2022-08-03T12:31:51;31.50;45.00
12720;DHT22;6424;48.520;11.228;2022-08-03T12:34:45;31.50;45.80
12720;DHT22;6424;48.520;11.228;2022-08-03T12:37:27;31.50;45.40
12720;DHT22;6424;48.520;11.228;2022-08-03T12:40:08;31.60;46.00
12720;DHT22;6424;48.520;11.228;2022-08-03T12:42:50;31.60;45.70
12720;DHT22;6424;48.520;11.228;2022-08-03T12:45:31;31.70;45.30
12720;DHT22;6424;48.520;11.228;2022-08-03T12:48:12;31.80;45.20
12720;DHT22;6424;48.520;11.228;2022-08-03T12:51:07;31.70;43.90
12720;DHT22;6424;48.520;11.228;2022-08-03T12:53:56;31.60;43.80
12720;DHT22;6424;48.520;11.228;2022-08-03T12:57:14;31.70;44.20
12720;DHT22;6424;48.520;11.228;2022-08-03T12:59:54;31.90;44.60
12720;DHT22;6424;48.520;11.228;2022-08-03T13:03:02;32.00;44.60
12720;DHT22;6424;48.520;11.228;2022-08-03T13:05:43;32.00;45.20
12720;DHT22;6424;48.520;11.228;2022-08-03T13:08:24;32.10;44.40
12720;DHT22;6424;48.520;11.228;2022-08-03T13:11:21;32.20;44.70
12720;DHT22;6424;48.520;11.228;2022-08-03T13:14:02;32.00;44.70
12720;DHT22;6424;48.520;11.228;2022-08-03T13:16:43;31.80;43.70
12720;DHT22;6424;48.520;11.228;2022-08-03T13:19:23;31.50;44.70
12720;DHT22;6424;48.520;11.228;2022-08-03T13:24:59;31.70;44.80
12720;DHT22;6424;48.520;11.228;2022-08-03T13:27:41;31.90;45.40
12720;DHT22;6424;48.520;11.228;2022-08-03T13:30:22;32.10;43.80
12720;DHT22;6424;48.520;11.228;2022-08-03T13:33:03;32.00;43.50
12720;DHT22;6424;48.520;11.228;2022-08-03T13:35:43;32.00;43.80
12720;DHT22;6424;48.520;11.228;2022-08-03T13:38:09;32.20;43.10
12720;DHT22;6424;48.520;11.228;2022-08-03T13:40:35;32.10;43.20
12720;DHT22;6424;48.520;11.228;2022-08-03T13:43:02;32.00;42.60
12720;DHT22;6424;48.520;11.228;2022-08-03T13:45:43;31.70;43.00
12720;DHT22;6424;48.520;11.228;2022-08-03T13:48:24;31.70;44.00
12720;DHT22;6424;48.520;11.228;2022-08-03T13:51:05;31.80;43.70
12720;DHT22;6424;48.520;11.228;2022-08-03T13:53:46;31.90;42.90
12720;DHT22;6424;48.520;11.228;2022-08-03T13:56:28;31.90;42.60
12720;DHT22;6424;48.520;11.228;2022-08-03T13:59:09;31.80;42.50
12720;DHT22;6424;48.520;11.228;2022-08-03T14:01:51;31.70;42.50
12720;DHT22;6424;48.520;11.228;2022-08-03T14:04:32;31.80;43.60
12720;DHT22;6424;48.520;11.228;2022-08-03T14:07:13;31.90;43.40
12720;DHT22;6424;48.520;11.228;2022-08-03T14:09:39;32.00;42.90
12720;DHT22;6424;48.520;11.228;2022-08-03T14:12:20;32.00;42.90
12720;DHT22;6424;48.520;11.228;2022-08-03T14:15:01;32.10;43.30
12720;DHT22;6424;48.520;11.228;2022-08-03T14:17:42;32.10;42.10
12720;DHT22;6424;48.520;11.228;2022-08-03T14:20:23;32.00;42.60
12720;DHT22;6424;48.520;11.228;2022-08-03T14:23:04;32.10;42.90
12720;DHT22;6424;48.520;11.228;2022-08-03T14:25:29;32.20;41.80
12720;DHT22;6424;48.520;11.228;2022-08-03T14:28:11;32.10;41.80
12720;DHT22;6424;48.520;11.228;2022-08-03T14:30:37;32.00;41.10
12720;DHT22;6424;48.520;11.228;2022-08-03T14:33:18;31.90;41.50
12720;DHT22;6424;48.520;11.228;2022-08-03T14:35:44;32.00;41.60
12720;DHT22;6424;48.520;11.228;2022-08-03T14:38:10;32.00;41.50
12720;DHT22;6424;48.520;11.228;2022-08-03T14:40:51;32.00;42.10
12720;DHT22;6424;48.520;11.228;2022-08-03T14:43:32;32.00;41.60
12720;DHT22;6424;48.520;11.228;2022-08-03T14:46:13;31.90;41.40
12720;DHT22;6424;48.520;11.228;2022-08-03T14:48:54;31.90;41.60
12720;DHT22;6424;48.520;11.228;2022-08-03T14:51:35;31.90;42.20
12720;DHT22;6424;48.520;11.228;2022-08-03T14:54:00;31.90;41.30
12720;DHT22;6424;48.520;11.228;2022-08-03T14:56:41;31.80;41.40
12720;DHT22;6424;48.520;11.228;2022-08-03T14:59:22;31.70;41.50
12720;DHT22;6424;48.520;11.228;2022-08-03T15:02:03;31.80;41.30
12720;DHT22;6424;48.520;11.228;2022-08-03T15:04:28;31.80;42.30
12720;DHT22;6424;48.520;11.228;2022-08-03T15:07:09;31.90;41.20
12720;DHT22;6424;48.520;11.228;2022-08-03T15:09:50;31.90;40.80
12720;DHT22;6424;48.520;11.228;2022-08-03T15:12:31;31.80;41.30
12720;DHT22;6424;48.520;11.228;2022-08-03T15:15:12;31.90;41.10
12720;DHT22;6424;48.520;11.228;2022-08-03T15:17:52;31.90;40.40
12720;DHT22;6424;48.520;11.228;2022-08-03T15:20:33;31.90;40.90
12720;DHT22;6424;48.520;11.228;2022-08-03T15:23:15;31.90;41.40
12720;DHT22;6424;48.520;11.228;2022-08-03T15:25:42;31.90;40.40
12720;DHT22;6424;48.520;11.228;2022-08-03T15:28:23;31.90;40.30
12720;DHT22;6424;48.520;11.228;2022-08-03T15:31:04;31.90;40.10
12720;DHT22;6424;48.520;11.228;2022-08-03T15:33:31;31.80;40.50
12720;DHT22;6424;48.520;11.228;2022-08-03T15:35:57;31.70;40.20
12720;DHT22;6424;48.520;11.228;2022-08-03T15:38:39;31.70;40.50
12720;DHT22;6424;48.520;11.228;2022-08-03T15:41:20;31.70;40.50
12720;DHT22;6424;48.520;11.228;2022-08-03T15:43:45;31.60;39.40
12720;DHT22;6424;48.520;11.228;2022-08-03T15:46:27;31.60;39.80
12720;DHT22;6424;48.520;11.228;2022-08-03T15:48:52;31.60;40.00
12720;DHT22;6424;48.520;11.228;2022-08-03T15:51:33;31.60;39.50
12720;DHT22;6424;48.520;11.228;2022-08-03T15:54:14;31.60;39.40
12720;DHT22;6424;48.520;11.228;2022-08-03T15:56:55;31.50;39.60
12720;DHT22;6424;48.520;11.228;2022-08-03T15:59:35;31.40;40.20
12720;DHT22;6424;48.520;11.228;2022-08-03T16:02:16;31.40;40.30
12720;DHT22;6424;48.520;11.228;2022-08-03T16:04:57;31.50;40.30
12720;DHT22;6424;48.520;11.228;2022-08-03T16:07:38;31.50;40.30
12720;DHT22;6424;48.520;11.228;2022-08-03T16:10:25;31.40;40.40
12720;DHT22;6424;48.520;11.228;2022-08-03T16:13:10;31.40;40.20
12720;DHT22;6424;48.520;11.228;2022-08-03T16:15:51;31.40;41.10
12720;DHT22;6424;48.520;11.228;2022-08-03T16:18:32;31.40;40.80
12720;DHT22;6424;48.520;11.228;2022-08-03T16:21:13;31.30;40.80
12720;DHT22;6424;48.520;11.228;2022-08-03T16:23:54;31.30;40.50
12720;DHT22;6424;48.520;11.228;2022-08-03T16:26:20;31.20;40.50
12720;DHT22;6424;48.520;11.228;2022-08-03T16:29:00;31.30;40.00
12720;DHT22;6424;48.520;11.228;2022-08-03T16:31:41;31.20;39.70
12720;DHT22;6424;48.520;11.228;2022-08-03T16:34:23;31.10;40.00
12720;DHT22;6424;48.520;11.228;2022-08-03T16:37:04;31.10;40.30
12720;DHT22;6424;48.520;11.228;2022-08-03T16:39:45;31.10;39.90
12720;DHT22;6424;48.520;11.228;2022-08-03T16:42:26;31.10;39.70
12720;DHT22;6424;48.520;11.228;2022-08-03T16:45:07;31.10;40.10
12720;DHT22;6424;48.520;11.228;2022-08-03T16:47:34;31.00;40.40
12720;DHT22;6424;48.520;11.228;2022-08-03T16:50:15;30.90;40.00
12720;DHT22;6424;48.520;11.228;2022-08-03T16:52:55;30.90;39.90
12720;DHT22;6424;48.520;11.228;2022-08-03T16:55:37;30.80;40.10
12720;DHT22;6424;48.520;11.228;2022-08-03T16:58:04;30.90;40.10
12720;DHT22;6424;48.520;11.228;2022-08-03T17:00:45;30.90;39.90
12720;DHT22;6424;48.520;11.228;2022-08-03T17:03:26;30.80;40.50
12720;DHT22;6424;48.520;11.228;2022-08-03T17:06:07;30.70;40.70
12720;DHT22;6424;48.520;11.228;2022-08-03T17:08:49;30.70;40.60
12720;DHT22;6424;48.520;11.228;2022-08-03T17:11:30;30.60;41.30
12720;DHT22;6424;48.520;11.228;2022-08-03T17:14:11;30.50;40.60
12720;DHT22;6424;48.520;11.228;2022-08-03T17:16:57;30.50;41.10
12720;DHT22;6424;48.520;11.228;2022-08-03T17:19:40;30.50;40.70
12720;DHT22;6424;48.520;11.228;2022-08-03T17:22:25;30.50;40.90
12720;DHT22;6424;48.520;11.228;2022-08-03T17:25:08;30.40;40.80
12720;DHT22;6424;48.520;11.228;2022-08-03T17:27:36;30.40;41.80